Terminal Aerodrome Forecast
Issued by NWS

Home | Current Version | Previous Version | Text Only | Print | Product List | Glossary On
Versions: 1 2 3 4 5 6 7 8 9 10 11 12 13 14 15 16 17 18 19 20 21 22 23 24 25 26 27 28 29 30 31 32 33 34 35 36
000
FTUS41 KBUF 250500
TAFIAG
TAF
KIAG 250538Z 2506/2606 10008KT P6SM BKN150
     FM252000 14009KT 6SM -SHRA OVC050
     FM252200 14005KT 3SM -SHRA BR OVC050
     FM260000 10005KT 3SM -SHRA BR OVC007
     FM260200 22010KT 6SM -SHRA OVC007
     FM260400 26014KT P6SM BKN012=

USA.gov is the U.S. government's official web portal to all federal, state and local government web resources and services.